Time;durP1;ratioP1;P1;durP2;ratioP2;P2;SDS_P1;SDS_P2;PMS_P1;PMS_P2;Temp;Humidity;BMP_temperature;BMP_pressure;BME280_temperature;BME280_humidity;BME280_pressure;Samples;Min_cycle;Max_cycle;Signal;HPM_P1;HPM_P2
2022/05/25 07:59:01;;;;;;;10.23;8.05;;;;;;;13.96;78.25;101338.91;5322112;27;20335;-71
2022/05/25 08:07:23;;;;;;;11.65;6.97;;;;;;;14.25;75.21;101339.59;5291784;28;20029;-72
2022/05/25 08:10:02;;;;;;;7.90;6.45;;;;;;;14.38;75.24;101339.97;5316446;28;20024;-72
2022/05/25 08:12:36;;;;;;;6.80;6.07;;;;;;;14.41;75.03;101344.94;5300389;28;20032;-71
2022/05/25 08:15:10;;;;;;;8.67;5.87;;;;;;;14.53;74.15;101342.53;5315752;28;20036;-72
2022/05/25 08:17:44;;;;;;;9.63;6.50;;;;;;;14.55;73.80;101345.88;5299586;28;20035;-73
2022/05/25 08:20:17;;;;;;;7.22;5.45;;;;;;;14.53;74.06;101350.91;5313018;28;20475;-72
2022/05/25 08:22:49;;;;;;;7.00;5.38;;;;;;;14.55;74.16;101343.06;5287825;28;20033;-72
2022/05/25 08:25:23;;;;;;;7.43;5.93;;;;;;;14.57;74.46;101349.16;5313969;28;20125;-71
2022/05/25 08:27:54;;;;;;;8.48;5.30;;;;;;;14.60;73.97;101343.00;5306417;28;20097;-71
2022/05/25 08:30:29;;;;;;;8.18;4.85;;;;;;;14.70;72.67;101342.81;5302543;28;20024;-69
2022/05/25 08:33:01;;;;;;;5.03;4.53;;;;;;;14.88;72.95;101340.25;5306373;28;20056;-70
2022/05/25 08:35:32;;;;;;;5.82;4.93;;;;;;;15.03;72.18;101334.38;5301305;28;20349;-70
2022/05/25 08:38:03;;;;;;;7.32;4.47;;;;;;;15.16;71.38;101332.75;5303594;28;20498;-69
2022/05/25 08:40:35;;;;;;;9.15;6.97;;;;;;;15.30;71.28;101335.56;5304247;28;20135;-70
2022/05/25 08:43:20;;;;;;;7.63;4.75;;;;;;;15.42;71.09;101333.91;5305012;28;20103;-70
2022/05/25 08:46:08;;;;;;;4.68;4.18;;;;;;;15.59;70.52;101335.25;5284664;28;20086;-70
2022/05/25 08:48:41;;;;;;;7.45;4.50;;;;;;;15.53;67.49;101333.72;5311819;28;20063;-69
2022/05/25 08:51:17;;;;;;;6.35;4.13;;;;;;;15.61;68.65;101332.97;5303275;28;20047;-68
2022/05/25 08:53:49;;;;;;;7.13;5.40;;;;;;;15.59;68.90;101335.25;5288384;28;20031;-69
2022/05/25 08:56:36;;;;;;;5.57;3.50;;;;;;;15.68;67.44;101341.78;5302565;28;20494;-68
2022/05/25 08:59:18;;;;;;;7.28;3.00;;;;;;;15.63;65.65;101323.13;5310815;28;20097;-69
2022/05/25 09:01:58;;;;;;;5.30;3.10;;;;;;;15.63;66.27;101331.53;5288951;28;20352;-70
2022/05/25 09:04:40;;;;;;;6.90;3.85;;;;;;;15.60;66.32;101326.56;5294557;28;20021;-68
2022/05/25 09:07:21;;;;;;;38.58;31.90;;;;;;;15.73;66.38;101335.28;5290026;28;20032;-70
2022/05/25 09:09:52;;;;;;;6.28;3.72;;;;;;;15.81;65.93;101331.75;5284899;28;20115;-69
2022/05/25 09:12:33;;;;;;;6.88;3.63;;;;;;;15.83;64.55;101330.28;5295652;28;20104;-72
2022/05/25 09:15:15;;;;;;;4.30;3.38;;;;;;;15.86;63.98;101334.44;5295211;28;20034;-72
2022/05/25 09:17:48;;;;;;;7.40;3.85;;;;;;;16.15;65.29;101330.41;5272469;28;20489;-70
2022/05/25 09:20:43;;;;;;;3.92;2.55;;;;;;;16.12;62.04;101343.06;5294315;28;20024;-70
2022/05/25 09:23:15;;;;;;;38.63;8.15;;;;;;;16.03;61.39;101343.00;5271348;28;20037;-71
2022/05/25 09:25:47;;;;;;;9.00;2.28;;;;;;;15.91;60.74;101342.69;5295753;28;20024;-73
2022/05/25 09:28:21;;;;;;;10.18;2.95;;;;;;;16.05;59.79;101351.91;5297133;28;20043;-72
2022/05/25 09:30:56;;;;;;;5.68;1.95;;;;;;;16.18;58.96;101352.16;5273129;28;20468;-71
2022/05/25 09:33:27;;;;;;;5.43;2.22;;;;;;;16.32;58.44;101343.75;5298266;28;20028;-72
2022/05/25 09:36:16;;;;;;;3.20;1.52;;;;;;;16.44;58.43;101344.00;5279828;28;20375;-71
2022/05/25 09:39:14;;;;;;;4.63;2.00;;;;;;;16.54;58.46;101346.56;5269093;28;20029;-72
2022/05/25 09:41:47;;;;;;;3.92;1.85;;;;;;;16.29;57.21;101348.00;5273184;28;20023;-72
2022/05/25 09:44:19;;;;;;;7.15;1.75;;;;;;;16.16;57.04;101351.66;5296729;28;20020;-72
2022/05/25 09:47:04;;;;;;;3.15;1.40;;;;;;;16.02;56.89;101349.72;5288566;28;20056;-72
2022/05/25 09:49:40;;;;;;;8.40;1.63;;;;;;;16.02;57.17;101355.31;5300122;28;20472;-71
2022/05/25 09:52:21;;;;;;;4.13;1.30;;;;;;;16.01;56.36;101358.44;5293026;28;20047;-72
2022/05/25 09:54:58;;;;;;;5.28;1.33;;;;;;;15.94;55.57;101353.25;5279112;28;20116;-72
2022/05/25 09:57:33;;;;;;;2.72;1.30;;;;;;;16.08;55.98;101353.25;5280360;28;20124;-72
2022/05/25 10:00:09;;;;;;;8.52;1.90;;;;;;;16.29;55.95;101365.59;5318818;28;20123;-72
2022/05/25 10:03:06;;;;;;;5.10;1.98;;;;;;;16.34;54.15;101363.84;5317932;28;20492;-72
2022/05/25 10:05:53;;;;;;;6.47;1.30;;;;;;;16.51;53.64;101367.63;5298425;28;20031;-73
2022/05/25 10:08:37;;;;;;;2.47;1.38;;;;;;;16.73;53.56;101357.56;5303758;28;20038;-75
2022/05/25 10:11:28;;;;;;;3.97;1.30;;;;;;;16.85;53.43;101363.44;5303522;28;20114;-75
2022/05/25 10:14:27;;;;;;;5.88;1.17;;;;;;;16.85;52.75;101371.84;5295742;28;20047;-71
2022/05/25 10:17:06;;;;;;;5.43;1.92;;;;;;;16.88;53.56;101370.38;5306886;28;20029;-75
2022/05/25 10:19:52;;;;;;;2.25;1.55;;;;;;;16.91;52.14;101370.53;5321112;28;20365;-73
2022/05/25 10:22:37;;;;;;;2.15;1.20;;;;;;;16.87;51.84;101357.50;5305438;28;20038;-75
2022/05/25 10:25:34;;;;;;;3.08;0.90;;;;;;;16.85;52.69;101366.25;5304653;28;20024;-76
2022/05/25 10:28:19;;;;;;;2.20;1.10;;;;;;;16.89;51.77;101372.84;5290896;28;20474;-75
2022/05/25 10:37:12;;;;;;;2.28;1.08;;;;;;;17.24;52.05;101349.81;5296321;28;20127;-75
2022/05/25 10:39:59;;;;;;;3.33;1.08;;;;;;;17.21;51.19;101345.66;5297145;28;20463;-75
2022/05/25 10:42:45;;;;;;;1.92;0.80;;;;;;;17.26;50.32;101345.53;5292554;28;20428;-76
2022/05/25 10:45:34;;;;;;;2.20;1.23;;;;;;;17.10;50.54;101344.28;5298443;28;20112;-76
2022/05/25 10:48:23;;;;;;;2.85;1.27;;;;;;;17.02;51.40;101351.47;5316255;28;20027;-75
2022/05/25 10:51:02;;;;;;;4.03;1.05;;;;;;;16.93;51.09;101348.66;5308341;28;20028;-73
2022/05/25 10:57:21;;;;;;;1.83;1.05;;;;;;;17.15;49.70;101349.75;5305998;28;20027;-73
2022/05/25 11:00:00;;;;;;;1.80;1.02;;;;;;;17.00;49.69;101348.19;5304310;28;20061;-74
2022/05/25 11:03:11;;;;;;;4.35;1.23;;;;;;;16.94;48.38;101347.50;5313756;28;20395;-72
2022/05/25 11:05:52;;;;;;;1.58;0.90;;;;;;;16.99;48.88;101357.75;5310893;28;20055;-73
2022/05/25 11:08:57;;;;;;;8.13;3.35;;;;;;;16.99;50.49;101354.13;5290476;28;20072;-73
2022/05/25 11:11:44;;;;;;;3.78;1.38;;;;;;;16.94;50.78;101355.06;5291947;28;20059;-83
2022/05/25 11:14:39;;;;;;;2.22;1.00;;;;;;;17.13;50.27;101360.47;5300657;28;20034;-71
2022/05/25 11:17:26;;;;;;;2.03;1.00;;;;;;;17.07;49.31;101356.13;5303192;28;20017;-76
2022/05/25 11:20:30;;;;;;;3.05;1.30;;;;;;;17.19;49.87;101347.97;5280239;28;20028;-74
2022/05/25 11:23:38;;;;;;;4.18;1.75;;;;;;;17.34;48.58;101344.72;5305919;28;20108;-73
2022/05/25 11:26:18;;;;;;;4.97;1.80;;;;;;;17.38;48.55;101344.91;5297685;28;20104;-76
2022/05/25 11:29:01;;;;;;;4.18;1.20;;;;;;;17.47;48.97;101334.56;5300909;28;20029;-74
2022/05/25 11:32:00;;;;;;;3.50;1.30;;;;;;;17.60;49.57;101341.19;5301674;28;20394;-73
2022/05/25 11:34:54;;;;;;;3.45;1.35;;;;;;;17.65;49.97;101317.78;5304683;28;20024;-74
2022/05/25 11:37:47;;;;;;;4.38;1.10;;;;;;;17.72;50.11;101332.97;5286893;28;20044;-74
2022/05/25 11:40:30;;;;;;;3.47;1.10;;;;;;;17.95;50.86;101336.53;5315315;28;20034;-74
2022/05/25 11:43:39;;;;;;;6.70;1.60;;;;;;;18.10;49.52;101326.81;5315081;28;20110;-74
2022/05/25 11:46:22;;;;;;;2.92;1.33;;;;;;;18.09;49.66;101321.50;5284244;28;20154;-80
2022/05/25 11:49:30;;;;;;;3.60;1.40;;;;;;;18.01;48.13;101317.53;5311207;28;20157;-77
2022/05/25 11:52:38;;;;;;;3.47;1.40;;;;;;;17.89;48.50;101326.59;5284903;28;20040;-74
2022/05/25 11:55:23;;;;;;;5.53;1.80;;;;;;;17.82;48.08;101323.47;5314865;28;20035;-74
2022/05/25 11:58:03;;;;;;;3.80;1.70;;;;;;;17.93;48.63;101315.56;5287353;28;20049;-74
2022/05/25 12:00:49;;;;;;;1.75;1.20;;;;;;;18.03;47.85;101315.25;5304423;28;20482;-74
2022/05/25 12:03:53;;;;;;;2.60;1.20;;;;;;;17.96;48.31;101331.72;5300558;28;20035;-74
2022/05/25 12:06:37;;;;;;;2.67;1.15;;;;;;;17.89;48.23;101331.38;5301437;28;20026;-74
2022/05/25 12:09:35;;;;;;;15.77;2.63;;;;;;;18.06;48.06;101319.38;5308356;28;20035;-74
2022/05/25 12:12:18;;;;;;;7.63;1.52;;;;;;;17.98;47.18;101321.81;5303707;28;20051;-74
2022/05/25 12:14:55;;;;;;;63.45;10.50;;;;;;;18.01;47.83;101323.16;5317423;28;20478;-74
2022/05/25 12:17:49;;;;;;;3.88;1.35;;;;;;;17.94;47.49;101322.81;5302428;28;20348;-72
2022/05/25 12:20:59;;;;;;;6.68;5.90;;;;;;;17.92;47.99;101342.78;5297647;28;20036;-71
2022/05/25 12:23:37;;;;;;;10.50;7.68;;;;;;;17.74;47.38;101324.22;5255187;28;20025;-73
2022/05/25 12:26:22;;;;;;;9.18;5.00;;;;;;;17.70;47.37;101329.66;5316108;28;20378;-71
2022/05/25 12:29:08;;;;;;;6.45;1.58;;;;;;;17.71;47.04;101331.31;5309065;28;20089;-71
2022/05/25 12:31:45;;;;;;;6.80;1.42;;;;;;;17.65;47.28;101338.25;5307341;28;20028;-71
2022/05/25 12:34:26;;;;;;;8.23;1.52;;;;;;;17.55;47.25;101344.16;5307770;28;20356;-71
2022/05/25 12:36:59;;;;;;;2.50;1.08;;;;;;;17.53;47.29;101340.84;5300515;28;20037;-70
2022/05/25 12:39:42;;;;;;;6.32;1.85;;;;;;;17.54;48.37;101345.31;5302036;28;20029;-73
2022/05/25 12:42:23;;;;;;;2.20;1.17;;;;;;;17.48;46.64;101343.78;5310490;28;20039;-73
2022/05/25 12:51:26;;;;;;;8.05;1.38;;;;;;;17.62;47.25;101352.09;5326053;28;20036;-77
2022/05/25 12:54:00;;;;;;;5.05;1.10;;;;;;;17.70;47.36;101357.72;5294592;28;20111;-74
2022/05/25 12:56:37;;;;;;;2.33;1.00;;;;;;;17.63;47.52;101354.56;5309269;28;20027;-77
2022/05/25 12:59:24;;;;;;;3.22;0.90;;;;;;;17.54;48.25;101351.75;5302088;28;20037;-78
2022/05/25 13:02:16;;;;;;;3.00;1.38;;;;;;;17.60;49.00;101346.81;5309536;28;20029;-78
2022/05/25 13:04:53;;;;;;;4.60;1.25;;;;;;;17.58;49.35;101351.91;5324161;28;20032;-79
2022/05/25 13:07:39;;;;;;;3.67;1.00;;;;;;;17.49;48.46;101354.69;5338433;28;20023;-79
2022/05/25 13:10:38;;;;;;;5.13;1.52;;;;;;;17.47;49.59;101348.56;5311301;28;20039;-82
2022/05/25 13:13:40;;;;;;;3.35;1.10;;;;;;;17.51;48.68;101348.75;5313667;28;20065;-77
2022/05/25 13:16:41;;;;;;;6.00;1.30;;;;;;;17.62;48.56;101349.28;5286006;28;20035;-77
2022/05/25 13:19:18;;;;;;;3.83;1.15;;;;;;;17.88;47.05;101347.41;5303578;28;20032;-77
2022/05/25 13:21:53;;;;;;;4.50;1.17;;;;;;;18.23;46.75;101344.66;5295863;28;20023;-76
2022/05/25 13:24:41;;;;;;;3.83;1.10;;;;;;;18.33;45.78;101346.28;5316551;28;20107;-76
2022/05/25 13:27:24;;;;;;;19.27;10.45;;;;;;;18.23;45.78;101345.47;5320996;28;20103;-77
2022/05/25 13:30:06;;;;;;;6.60;1.48;;;;;;;18.23;45.94;101333.41;5308753;28;20435;-76
2022/05/25 13:32:48;;;;;;;3.38;1.05;;;;;;;18.25;47.26;101340.34;5285853;28;20036;-76
2022/05/25 13:35:22;;;;;;;5.57;1.30;;;;;;;18.27;46.53;101348.44;5298384;28;20020;-75
2022/05/25 13:37:59;;;;;;;3.75;1.10;;;;;;;18.31;45.78;101337.38;5320298;28;20051;-74
2022/05/25 13:41:11;;;;;;;3.28;1.20;;;;;;;18.47;46.95;101342.16;5317429;28;20153;-75
2022/05/25 13:44:00;;;;;;;3.83;1.13;;;;;;;18.39;45.85;101334.56;5284863;28;20031;-73
2022/05/25 13:46:51;;;;;;;2.63;1.55;;;;;;;18.29;45.32;101342.50;5311048;28;20446;-74
2022/05/25 13:49:36;;;;;;;3.50;1.10;;;;;;;18.13;46.19;101336.56;5309968;28;20123;-75
2022/05/25 13:52:26;;;;;;;2.77;1.17;;;;;;;18.05;46.29;101341.00;5314952;28;20058;-76
2022/05/25 13:55:02;;;;;;;3.17;1.40;;;;;;;18.03;46.16;101343.31;5320645;28;20038;-73
2022/05/25 13:57:45;;;;;;;3.15;1.20;;;;;;;18.13;47.03;101342.16;5307278;28;20060;-74
2022/05/25 14:00:29;;;;;;;2.72;1.00;;;;;;;18.23;47.02;101345.47;5313467;28;20023;-74
2022/05/25 14:03:05;;;;;;;5.88;1.42;;;;;;;18.30;46.46;101335.72;5297628;28;20460;-73
2022/05/25 14:05:39;;;;;;;3.95;1.30;;;;;;;18.42;46.97;101345.13;5321423;28;20407;-74
2022/05/25 14:11:37;;;;;;;2.47;1.30;;;;;;;18.57;46.83;101346.59;5320613;28;20032;-73
2022/05/25 14:14:25;;;;;;;4.90;1.10;;;;;;;18.54;45.94;101336.03;5312076;28;20024;-74
2022/05/25 14:17:03;;;;;;;4.88;1.20;;;;;;;18.46;46.54;101350.91;5323528;28;20504;-74
2022/05/25 14:19:47;;;;;;;4.55;1.25;;;;;;;18.35;45.48;101327.94;5309614;28;20495;-71
2022/05/25 14:22:21;;;;;;;3.03;1.00;;;;;;;18.35;45.52;101336.38;5309959;28;20051;-71
2022/05/25 14:24:55;;;;;;;4.55;1.50;;;;;;;18.37;46.29;101338.84;5289013;28;20085;-70
2022/05/25 14:27:29;;;;;;;7.03;1.70;;;;;;;18.38;45.64;101338.53;5297423;28;20017;-71
2022/05/25 14:30:18;;;;;;;10.82;1.83;;;;;;;18.23;45.34;101337.03;5314988;28;20028;-71
2022/05/25 14:33:19;;;;;;;8.85;2.20;;;;;;;18.19;45.67;101341.66;5311180;28;20024;-72
2022/05/25 14:35:54;;;;;;;11.25;1.73;;;;;;;18.03;45.32;101338.50;5283404;28;20031;-71
2022/05/25 14:38:36;;;;;;;;;;;;;;;18.09;45.90;101341.97;5304156;28;20358;-71
2022/05/25 14:41:30;;;;;;;8.40;2.30;;;;;;;18.04;45.96;101350.56;5309328;28;20015;-71
2022/05/25 14:44:01;;;;;;;4.47;1.33;;;;;;;18.02;46.41;101341.63;5297720;28;20119;-71
2022/05/25 14:46:38;;;;;;;5.95;1.42;;;;;;;18.00;46.25;101346.78;5318975;28;20034;-72
2022/05/25 14:49:16;;;;;;;6.65;1.65;;;;;;;17.90;46.42;101335.84;5308657;28;20028;-73
2022/05/25 14:51:50;;;;;;;6.22;1.75;;;;;;;17.90;46.82;101349.88;5288232;28;20020;-73
2022/05/25 14:54:24;;;;;;;10.80;3.03;;;;;;;17.98;47.15;101340.66;5312385;28;20466;-77
2022/05/25 14:56:57;;;;;;;7.38;2.50;;;;;;;18.02;47.19;101336.00;5302875;28;20040;-76
2022/05/25 14:59:44;;;;;;;10.82;1.60;;;;;;;18.20;47.67;101343.31;5291312;28;20143;-77
2022/05/25 15:02:34;;;;;;;3.40;1.42;;;;;;;18.28;47.19;101336.06;5299216;28;20087;-79
2022/05/25 15:05:26;;;;;;;5.70;1.48;;;;;;;18.33;46.43;101343.47;5284458;28;20077;-78
2022/05/25 15:07:58;;;;;;;4.10;1.63;;;;;;;18.12;45.49;101346.94;5284053;28;20031;-76
2022/05/25 15:10:32;;;;;;;3.83;1.30;;;;;;;18.12;45.97;101346.94;5284086;28;20044;-77
2022/05/25 15:13:04;;;;;;;3.83;1.45;;;;;;;18.06;45.49;101353.03;5315476;28;20020;-78
2022/05/25 15:18:36;;;;;;;4.25;1.50;;;;;;;17.98;47.07;101358.31;5316831;28;20134;-78
2022/05/25 15:21:13;;;;;;;4.40;1.40;;;;;;;18.00;46.96;101358.00;5295157;28;20471;-79
2022/05/25 15:23:55;;;;;;;3.42;1.45;;;;;;;18.05;47.35;101363.44;5291144;28;20055;-79
2022/05/25 15:26:31;;;;;;;4.93;1.10;;;;;;;18.09;47.35;101364.44;5313705;28;20099;-79
2022/05/25 15:29:21;;;;;;;4.80;1.25;;;;;;;18.12;46.09;101357.34;5314127;28;20023;-77
2022/05/25 15:31:54;;;;;;;8.10;1.67;;;;;;;17.96;44.59;101368.22;5296929;28;20035;-79
2022/05/25 15:34:25;;;;;;;8.60;1.60;;;;;;;17.89;44.81;101371.47;5315252;28;20397;-75
2022/05/25 15:36:56;;;;;;;12.85;1.73;;;;;;;17.87;44.82;101375.78;5318789;28;20035;-76
2022/05/25 15:39:28;;;;;;;8.70;1.83;;;;;;;17.78;45.48;101376.56;5308291;28;20353;-74
2022/05/25 15:41:59;;;;;;;14.82;1.80;;;;;;;17.69;46.03;101388.88;5318810;28;20028;-73
2022/05/25 15:44:30;;;;;;;12.10;2.40;;;;;;;17.67;46.50;101386.44;5292822;28;20036;-73
2022/05/25 15:47:02;;;;;;;10.15;3.05;;;;;;;17.64;47.21;101375.88;5313104;28;20028;-72
2022/05/25 15:49:34;;;;;;;4.68;1.48;;;;;;;17.53;47.09;101389.31;5307523;28;20023;-71
2022/05/25 15:52:05;;;;;;;8.32;1.65;;;;;;;17.46;47.52;101390.94;5295955;28;20029;-73
2022/05/25 15:54:44;;;;;;;5.38;3.22;;;;;;;17.44;46.96;101379.25;5305990;28;20035;-71
2022/05/25 15:57:21;;;;;;;10.10;1.30;;;;;;;17.47;46.99;101387.00;5307177;28;20072;-70
2022/05/25 15:59:59;;;;;;;4.07;1.70;;;;;;;17.53;47.68;101386.53;5301848;28;20047;-71
2022/05/25 16:02:31;;;;;;;6.65;1.45;;;;;;;17.56;47.19;101385.03;5303084;28;20383;-70
2022/05/25 16:05:06;;;;;;;5.45;3.30;;;;;;;17.49;46.96;101381.91;5301782;28;20164;-70
2022/05/25 16:10:29;;;;;;;4.28;1.23;;;;;;;17.42;46.40;101387.16;5314464;28;20379;-71
2022/05/25 16:13:00;;;;;;;6.97;4.75;;;;;;;17.36;47.04;101387.28;5304463;28;20487;-69
2022/05/25 16:15:32;;;;;;;5.20;1.50;;;;;;;17.39;47.46;101394.22;5317499;28;20070;-69
2022/05/25 16:18:03;;;;;;;5.00;1.30;;;;;;;17.36;47.27;101384.50;5292418;28;20039;-70
2022/05/25 16:20:35;;;;;;;5.60;1.65;;;;;;;17.35;47.89;101401.63;5294602;28;20432;-68
2022/05/25 16:23:06;;;;;;;4.25;1.10;;;;;;;17.31;47.98;101392.22;5286565;28;20020;-70
2022/05/25 16:25:37;;;;;;;3.95;1.48;;;;;;;17.31;48.53;101404.25;5309286;28;20458;-70
2022/05/25 16:28:09;;;;;;;6.45;1.50;;;;;;;17.37;48.31;101405.75;5320424;28;20044;-70
2022/05/25 16:30:41;;;;;;;4.20;1.02;;;;;;;17.43;48.66;101408.41;5316240;28;20019;-70
2022/05/25 16:33:12;;;;;;;8.77;1.70;;;;;;;17.35;48.98;101413.66;5311976;28;20078;-70
2022/05/25 16:35:44;;;;;;;3.25;1.15;;;;;;;17.28;48.69;101410.50;5306647;28;20031;-70
2022/05/25 16:38:15;;;;;;;9.80;1.88;;;;;;;17.24;49.12;101412.28;5303735;28;20080;-71
2022/05/25 16:40:47;;;;;;;4.18;1.50;;;;;;;17.23;48.79;101413.44;5315052;28;20059;-71
2022/05/25 16:43:18;;;;;;;6.00;1.35;;;;;;;17.21;48.93;101410.13;5308132;28;20144;-70
2022/05/25 16:45:50;;;;;;;6.15;1.08;;;;;;;17.15;49.12;101409.44;5323166;28;20073;-71
2022/05/25 16:48:21;;;;;;;8.93;1.10;;;;;;;17.04;49.80;101396.84;5316563;28;20058;-71
2022/05/25 16:50:53;;;;;;;4.38;1.20;;;;;;;17.00;50.18;101407.03;5311226;28;21091;-71
2022/05/25 16:53:24;;;;;;;5.43;1.25;;;;;;;16.94;49.88;101414.72;5293343;28;20051;-72
2022/05/25 16:55:56;;;;;;;7.72;1.60;;;;;;;16.94;49.94;101400.72;5321478;28;20017;-71
2022/05/25 16:58:33;;;;;;;5.20;1.55;;;;;;;16.94;49.95;101408.31;5301171;28;20052;-72
2022/05/25 17:01:08;;;;;;;4.82;1.17;;;;;;;16.88;50.02;101407.59;5315824;28;20530;-69
2022/05/25 17:03:44;;;;;;;7.70;1.73;;;;;;;16.99;50.36;101408.16;5322317;28;20103;-70
2022/05/25 17:06:24;;;;;;;6.53;1.70;;;;;;;16.98;49.99;101414.13;5322975;28;20054;-72
2022/05/25 17:08:56;;;;;;;4.50;0.98;;;;;;;16.94;50.33;101403.53;5309541;28;20175;-72
2022/05/25 17:11:27;;;;;;;3.20;1.10;;;;;;;16.89;50.42;101406.44;5323836;28;20024;-72
2022/05/25 17:14:00;;;;;;;5.93;1.58;;;;;;;16.90;50.50;101415.72;5313131;28;20020;-72
2022/05/25 17:16:31;;;;;;;6.97;1.20;;;;;;;16.95;50.59;101404.38;5314473;28;20027;-71
2022/05/25 17:21:53;;;;;;;3.60;1.10;;;;;;;16.99;50.65;101410.16;5312286;28;20075;-71
2022/05/25 17:24:24;;;;;;;6.72;1.30;;;;;;;16.95;51.20;101405.19;5316475;28;20426;-71
2022/05/25 17:26:56;;;;;;;3.75;1.50;;;;;;;16.87;51.12;101408.78;5293348;28;20357;-70
2022/05/25 17:29:28;;;;;;;4.55;1.35;;;;;;;16.87;51.16;101408.78;5320333;28;20031;-71
